sensor_id;sensor_type;location;lat;lon;timestamp;pressure;altitude;pressure_sealevel;temperature;humidity
14966;BME280;7577;45.226;5.798;2023-03-18T00:00:29;98940.66;;;21.48;33.77
14966;BME280;7577;45.226;5.798;2023-03-18T00:03:00;98926.30;;;21.46;33.77
14966;BME280;7577;45.226;5.798;2023-03-18T00:05:31;98927.45;;;21.45;33.72
14966;BME280;7577;45.226;5.798;2023-03-18T00:08:02;98935.77;;;21.45;33.78
14966;BME280;7577;45.226;5.798;2023-03-18T00:10:33;98930.23;;;21.45;33.75
14966;BME280;7577;45.226;5.798;2023-03-18T00:15:41;98927.13;;;21.46;33.66
14966;BME280;7577;45.226;5.798;2023-03-18T00:18:11;98926.17;;;21.42;33.75
14966;BME280;7577;45.226;5.798;2023-03-18T00:20:42;98931.95;;;21.43;33.69
14966;BME280;7577;45.226;5.798;2023-03-18T00:23:12;98931.48;;;21.41;33.72
14966;BME280;7577;45.226;5.798;2023-03-18T00:25:43;98937.25;;;21.42;33.76
14966;BME280;7577;45.226;5.798;2023-03-18T00:28:14;98932.61;;;21.40;33.82
14966;BME280;7577;45.226;5.798;2023-03-18T00:30:44;98929.83;;;21.40;33.81
14966;BME280;7577;45.226;5.798;2023-03-18T00:33:16;98933.66;;;21.42;33.79
14966;BME280;7577;45.226;5.798;2023-03-18T00:35:47;98930.42;;;21.40;33.81
14966;BME280;7577;45.226;5.798;2023-03-18T00:40:54;98932.04;;;21.41;33.77
14966;BME280;7577;45.226;5.798;2023-03-18T00:43:31;98925.22;;;21.38;33.80
14966;BME280;7577;45.226;5.798;2023-03-18T00:46:03;98924.62;;;21.39;33.81
14966;BME280;7577;45.226;5.798;2023-03-18T00:51:13;98915.75;;;21.39;33.77
14966;BME280;7577;45.226;5.798;2023-03-18T00:53:47;98915.52;;;21.38;33.78
14966;BME280;7577;45.226;5.798;2023-03-18T00:56:19;98908.09;;;21.36;33.76
14966;BME280;7577;45.226;5.798;2023-03-18T00:58:51;98915.52;;;21.38;33.78
14966;BME280;7577;45.226;5.798;2023-03-18T01:01:23;98916.41;;;21.36;33.83
14966;BME280;7577;45.226;5.798;2023-03-18T01:06:32;98913.64;;;21.36;33.83
14966;BME280;7577;45.226;5.798;2023-03-18T01:11:42;98904.86;;;21.34;33.78
14966;BME280;7577;45.226;5.798;2023-03-18T01:14:12;98907.14;;;21.32;33.76
14966;BME280;7577;45.226;5.798;2023-03-18T01:19:20;98902.91;;;21.35;33.76
14966;BME280;7577;45.226;5.798;2023-03-18T01:21:51;98893.55;;;21.33;33.79
14966;BME280;7577;45.226;5.798;2023-03-18T01:24:21;98894.44;;;21.31;33.82
14966;BME280;7577;45.226;5.798;2023-03-18T01:26:51;98887.52;;;21.31;33.84
14966;BME280;7577;45.226;5.798;2023-03-18T01:29:21;98879.20;;;21.31;33.86
14966;BME280;7577;45.226;5.798;2023-03-18T01:34:29;98878.64;;;21.32;33.80
14966;BME280;7577;45.226;5.798;2023-03-18T01:37:00;98873.53;;;21.28;33.86
14966;BME280;7577;45.226;5.798;2023-03-18T01:39:29;98873.99;;;21.30;33.85
14966;BME280;7577;45.226;5.798;2023-03-18T01:42:00;98871.58;;;21.28;33.82
14966;BME280;7577;45.226;5.798;2023-03-18T01:47:09;98867.33;;;21.31;33.84
14966;BME280;7577;45.226;5.798;2023-03-18T01:49:41;98861.39;;;21.26;33.88
14966;BME280;7577;45.226;5.798;2023-03-18T01:54:54;98852.26;;;21.26;33.90
14966;BME280;7577;45.226;5.798;2023-03-18T01:57:25;98853.18;;;21.24;33.93
14966;BME280;7577;45.226;5.798;2023-03-18T01:59:57;98846.48;;;21.25;33.90
14966;BME280;7577;45.226;5.798;2023-03-18T02:02:28;98852.63;;;21.24;33.94
14966;BME280;7577;45.226;5.798;2023-03-18T02:05:02;98854.00;;;21.24;33.94
14966;BME280;7577;45.226;5.798;2023-03-18T02:07:35;98849.02;;;21.24;34.00
14966;BME280;7577;45.226;5.798;2023-03-18T02:12:49;98843.81;;;21.22;33.96
14966;BME280;7577;45.226;5.798;2023-03-18T02:15:21;98843.59;;;21.21;33.98
14966;BME280;7577;45.226;5.798;2023-03-18T02:17:54;98844.74;;;21.20;33.98
14966;BME280;7577;45.226;5.798;2023-03-18T02:20:33;98846.36;;;21.21;33.98
14966;BME280;7577;45.226;5.798;2023-03-18T02:25:48;98836.98;;;21.20;33.99
14966;BME280;7577;45.226;5.798;2023-03-18T02:31:00;98844.74;;;21.20;34.06
14966;BME280;7577;45.226;5.798;2023-03-18T02:33:33;98842.63;;;21.17;34.07
14966;BME280;7577;45.226;5.798;2023-03-18T02:36:08;98852.09;;;21.16;34.11
14966;BME280;7577;45.226;5.798;2023-03-18T02:38:41;98847.94;;;21.16;34.12
14966;BME280;7577;45.226;5.798;2023-03-18T02:41:15;98843.56;;;21.15;34.12
14966;BME280;7577;45.226;5.798;2023-03-18T02:43:46;98852.66;;;21.16;34.12
14966;BME280;7577;45.226;5.798;2023-03-18T02:46:27;98844.94;;;21.15;34.11
14966;BME280;7577;45.226;5.798;2023-03-18T02:49:00;98853.58;;;21.14;34.14
14966;BME280;7577;45.226;5.798;2023-03-18T02:54:10;98856.25;;;21.16;34.12
14966;BME280;7577;45.226;5.798;2023-03-18T02:56:42;98864.44;;;21.13;34.14
14966;BME280;7577;45.226;5.798;2023-03-18T03:01:54;98856.69;;;21.12;34.17
14966;BME280;7577;45.226;5.798;2023-03-18T03:04:26;98861.99;;;21.11;34.16
14966;BME280;7577;45.226;5.798;2023-03-18T03:06:57;98858.40;;;21.11;34.17
14966;BME280;7577;45.226;5.798;2023-03-18T03:09:29;98859.45;;;21.12;34.16
14966;BME280;7577;45.226;5.798;2023-03-18T03:14:37;98860.61;;;21.11;34.20
14966;BME280;7577;45.226;5.798;2023-03-18T03:17:07;98862.88;;;21.09;34.25
14966;BME280;7577;45.226;5.798;2023-03-18T03:19:38;98867.63;;;21.09;34.26
14966;BME280;7577;45.226;5.798;2023-03-18T03:24:46;98871.42;;;21.10;34.24
14966;BME280;7577;45.226;5.798;2023-03-18T03:27:17;98872.34;;;21.08;34.30
14966;BME280;7577;45.226;5.798;2023-03-18T03:29:47;98864.59;;;21.08;34.29
14966;BME280;7577;45.226;5.798;2023-03-18T03:32:17;98866.25;;;21.09;34.30
14966;BME280;7577;45.226;5.798;2023-03-18T03:34:47;98869.91;;;21.07;34.32
14966;BME280;7577;45.226;5.798;2023-03-18T03:37:18;98873.27;;;21.06;34.33
14966;BME280;7577;45.226;5.798;2023-03-18T03:39:48;98877.75;;;21.05;34.36
14966;BME280;7577;45.226;5.798;2023-03-18T03:42:19;98874.16;;;21.04;34.37
14966;BME280;7577;45.226;5.798;2023-03-18T03:44:49;98872.21;;;21.05;34.37
14966;BME280;7577;45.226;5.798;2023-03-18T03:49:57;98869.67;;;21.06;34.40
14966;BME280;7577;45.226;5.798;2023-03-18T03:52:29;98878.88;;;21.04;34.40
14966;BME280;7577;45.226;5.798;2023-03-18T03:54:59;98877.26;;;21.03;34.41
14966;BME280;7577;45.226;5.798;2023-03-18T04:00:11;98873.59;;;21.05;34.45
14966;BME280;7577;45.226;5.798;2023-03-18T04:02:43;98867.34;;;21.02;34.44
14966;BME280;7577;45.226;5.798;2023-03-18T04:05:15;98879.47;;;21.03;34.42
14966;BME280;7577;45.226;5.798;2023-03-18T04:07:47;98869.28;;;21.01;34.45
14966;BME280;7577;45.226;5.798;2023-03-18T04:10:19;98889.48;;;21.02;34.47
14966;BME280;7577;45.226;5.798;2023-03-18T04:15:28;98881.64;;;21.04;34.42
14966;BME280;7577;45.226;5.798;2023-03-18T04:17:58;98877.59;;;21.01;34.46
14966;BME280;7577;45.226;5.798;2023-03-18T04:20:30;98867.66;;;21.00;34.48
14966;BME280;7577;45.226;5.798;2023-03-18T04:23:03;98876.56;;;21.00;34.50
14966;BME280;7577;45.226;5.798;2023-03-18T04:25:33;98880.72;;;21.00;34.49
14966;BME280;7577;45.226;5.798;2023-03-18T04:30:42;98882.10;;;21.00;34.51
14966;BME280;7577;45.226;5.798;2023-03-18T04:33:12;98882.43;;;20.98;34.53
14966;BME280;7577;45.226;5.798;2023-03-18T04:35:43;98884.38;;;20.98;34.50
14966;BME280;7577;45.226;5.798;2023-03-18T04:40:52;98875.18;;;21.00;34.55
14966;BME280;7577;45.226;5.798;2023-03-18T04:43:22;98878.61;;;20.97;34.56
14966;BME280;7577;45.226;5.798;2023-03-18T04:45:53;98882.17;;;20.97;34.59
14966;BME280;7577;45.226;5.798;2023-03-18T04:51:02;98879.66;;;20.98;34.56
14966;BME280;7577;45.226;5.798;2023-03-18T04:53:32;98869.24;;;20.95;34.55
14966;BME280;7577;45.226;5.798;2023-03-18T04:56:03;98876.16;;;20.95;34.58
14966;BME280;7577;45.226;5.798;2023-03-18T04:58:33;98873.39;;;20.95;34.57
14966;BME280;7577;45.226;5.798;2023-03-18T05:01:04;98875.11;;;20.94;34.58
14966;BME280;7577;45.226;5.798;2023-03-18T05:03:35;98878.47;;;20.93;34.61
14966;BME280;7577;45.226;5.798;2023-03-18T05:08:44;98878.38;;;20.96;34.58
14966;BME280;7577;45.226;5.798;2023-03-18T05:11:14;98889.19;;;20.95;34.57
14966;BME280;7577;45.226;5.798;2023-03-18T05:13:45;98889.55;;;20.93;34.59
14966;BME280;7577;45.226;5.798;2023-03-18T05:16:15;98890.11;;;20.93;34.63
14966;BME280;7577;45.226;5.798;2023-03-18T05:18:45;98889.28;;;20.92;34.66
14966;BME280;7577;45.226;5.798;2023-03-18T05:21:16;98890.11;;;20.93;34.67
14966;BME280;7577;45.226;5.798;2023-03-18T05:23:46;98893.11;;;20.94;34.67
14966;BME280;7577;45.226;5.798;2023-03-18T05:26:16;98887.34;;;20.93;34.67
14966;BME280;7577;45.226;5.798;2023-03-18T05:28:46;98881.47;;;20.94;34.63
14966;BME280;7577;45.226;5.798;2023-03-18T05:31:16;98887.57;;;20.94;34.67
14966;BME280;7577;45.226;5.798;2023-03-18T05:36:24;98887.14;;;20.98;34.72
14966;BME280;7577;45.226;5.798;2023-03-18T05:38:54;98885.30;;;20.96;34.74
14966;BME280;7577;45.226;5.798;2023-03-18T05:41:25;98886.91;;;20.97;34.81
14966;BME280;7577;45.226;5.798;2023-03-18T05:43:55;98892.91;;;20.99;34.85
14966;BME280;7577;45.226;5.798;2023-03-18T05:46:25;98897.56;;;21.01;34.84
14966;BME280;7577;45.226;5.798;2023-03-18T05:48:56;98894.80;;;21.01;34.85
14966;BME280;7577;45.226;5.798;2023-03-18T05:51:26;98897.47;;;21.03;34.94
14966;BME280;7577;45.226;5.798;2023-03-18T05:53:56;98906.01;;;21.04;35.00
14966;BME280;7577;45.226;5.798;2023-03-18T05:56:27;98902.91;;;21.06;35.07
14966;BME280;7577;45.226;5.798;2023-03-18T05:58:59;98901.20;;;21.07;35.16
14966;BME280;7577;45.226;5.798;2023-03-18T06:04:08;98904.14;;;21.17;35.55
14966;BME280;7577;45.226;5.798;2023-03-18T06:06:38;98894.70;;;21.18;35.69
14966;BME280;7577;45.226;5.798;2023-03-18T06:09:09;98899.42;;;21.17;36.01
14966;BME280;7577;45.226;5.798;2023-03-18T06:11:40;98898.50;;;21.19;36.25
14966;BME280;7577;45.226;5.798;2023-03-18T06:14:11;98899.32;;;21.20;36.50
14966;BME280;7577;45.226;5.798;2023-03-18T06:16:42;98901.77;;;21.21;36.62
14966;BME280;7577;45.226;5.798;2023-03-18T06:21:52;98912.41;;;21.25;36.94
14966;BME280;7577;45.226;5.798;2023-03-18T06:24:22;98913.80;;;21.25;36.94
14966;BME280;7577;45.226;5.798;2023-03-18T06:26:53;98914.95;;;21.24;37.07
14966;BME280;7577;45.226;5.798;2023-03-18T06:32:00;98918.58;;;21.31;37.01
14966;BME280;7577;45.226;5.798;2023-03-18T06:34:31;98916.14;;;21.29;37.05
14966;BME280;7577;45.226;5.798;2023-03-18T06:37:03;98914.16;;;21.30;37.13
14966;BME280;7577;45.226;5.798;2023-03-18T06:39:33;98921.92;;;21.30;37.11
14966;BME280;7577;45.226;5.798;2023-03-18T06:42:04;98916.84;;;21.32;37.12
14966;BME280;7577;45.226;5.798;2023-03-18T06:44:34;98921.59;;;21.32;37.09
14966;BME280;7577;45.226;5.798;2023-03-18T06:47:04;98923.70;;;21.35;37.17
14966;BME280;7577;45.226;5.798;2023-03-18T06:49:36;98926.11;;;21.36;37.07
14966;BME280;7577;45.226;5.798;2023-03-18T06:52:06;98926.37;;;21.37;37.05
14966;BME280;7577;45.226;5.798;2023-03-18T06:54:37;98926.83;;;21.39;37.00
14966;BME280;7577;45.226;5.798;2023-03-18T06:57:10;98930.42;;;21.40;36.75
14966;BME280;7577;45.226;5.798;2023-03-18T06:59:41;98925.34;;;21.42;36.91
14966;BME280;7577;45.226;5.798;2023-03-18T07:02:11;98923.50;;;21.40;36.73
14966;BME280;7577;45.226;5.798;2023-03-18T07:07:19;98920.73;;;21.40;36.96
14966;BME280;7577;45.226;5.798;2023-03-18T07:09:49;98923.73;;;21.41;36.83
14966;BME280;7577;45.226;5.798;2023-03-18T07:12:20;98925.58;;;21.43;36.59
14966;BME280;7577;45.226;5.798;2023-03-18T07:14:50;98923.06;;;21.44;36.55
14966;BME280;7577;45.226;5.798;2023-03-18T07:17:21;98919.70;;;21.44;36.59
14966;BME280;7577;45.226;5.798;2023-03-18T07:22:30;98910.63;;;21.50;36.53
14966;BME280;7577;45.226;5.798;2023-03-18T07:25:00;98913.73;;;21.48;36.51
14966;BME280;7577;45.226;5.798;2023-03-18T07:27:30;98917.55;;;21.50;36.42
14966;BME280;7577;45.226;5.798;2023-03-18T07:30:02;98916.63;;;21.52;36.43
14966;BME280;7577;45.226;5.798;2023-03-18T07:32:33;98918.28;;;21.53;36.37
14966;BME280;7577;45.226;5.798;2023-03-18T07:35:05;98913.19;;;21.55;36.32
14966;BME280;7577;45.226;5.798;2023-03-18T07:37:37;98910.65;;;21.56;36.34
14966;BME280;7577;45.226;5.798;2023-03-18T07:40:10;98909.27;;;21.56;36.28
14966;BME280;7577;45.226;5.798;2023-03-18T07:42:41;98911.48;;;21.56;36.28
14966;BME280;7577;45.226;5.798;2023-03-18T07:45:12;98912.30;;;21.57;36.21
14966;BME280;7577;45.226;5.798;2023-03-18T07:47:42;98907.31;;;21.56;36.21
14966;BME280;7577;45.226;5.798;2023-03-18T07:50:13;98912.30;;;21.57;36.16
14966;BME280;7577;45.226;5.798;2023-03-18T07:52:44;98908.70;;;21.56;36.13
14966;BME280;7577;45.226;5.798;2023-03-18T07:55:14;98912.53;;;21.58;36.14
14966;BME280;7577;45.226;5.798;2023-03-18T07:57:44;98908.38;;;21.58;36.11
14966;BME280;7577;45.226;5.798;2023-03-18T08:00:17;98912.76;;;21.59;36.09
14966;BME280;7577;45.226;5.798;2023-03-18T08:02:47;98916.36;;;21.59;36.07
14966;BME280;7577;45.226;5.798;2023-03-18T08:05:18;98911.27;;;21.61;36.02
14966;BME280;7577;45.226;5.798;2023-03-18T08:07:49;98912.32;;;21.63;36.03
14966;BME280;7577;45.226;5.798;2023-03-18T08:12:59;98914.77;;;21.64;36.01
14966;BME280;7577;45.226;5.798;2023-03-18T08:15:29;98912.22;;;21.65;35.98
14966;BME280;7577;45.226;5.798;2023-03-18T08:18:00;98913.61;;;21.65;35.96
14966;BME280;7577;45.226;5.798;2023-03-18T08:20:30;98917.77;;;21.65;36.00
14966;BME280;7577;45.226;5.798;2023-03-18T08:25:39;98915.45;;;21.67;35.98
14966;BME280;7577;45.226;5.798;2023-03-18T08:28:09;98916.05;;;21.67;35.94
14966;BME280;7577;45.226;5.798;2023-03-18T08:30:39;98911.66;;;21.66;35.92
14966;BME280;7577;45.226;5.798;2023-03-18T08:33:10;98912.68;;;21.67;35.95
14966;BME280;7577;45.226;5.798;2023-03-18T08:35:40;98915.23;;;21.66;35.92
14966;BME280;7577;45.226;5.798;2023-03-18T08:38:11;98919.88;;;21.68;35.90
14966;BME280;7577;45.226;5.798;2023-03-18T08:40:41;98915.45;;;21.67;35.91
14966;BME280;7577;45.226;5.798;2023-03-18T08:43:12;98917.89;;;21.69;35.89
14966;BME280;7577;45.226;5.798;2023-03-18T08:45:42;98913.20;;;21.69;35.84
14966;BME280;7577;45.226;5.798;2023-03-18T08:48:13;98912.64;;;21.70;35.84
14966;BME280;7577;45.226;5.798;2023-03-18T08:50:44;98920.59;;;21.71;35.85
14966;BME280;7577;45.226;5.798;2023-03-18T08:53:15;98910.89;;;21.71;35.91
14966;BME280;7577;45.226;5.798;2023-03-18T08:55:46;98911.61;;;21.74;35.89
14966;BME280;7577;45.226;5.798;2023-03-18T08:58:17;98916.27;;;21.76;35.85
14966;BME280;7577;45.226;5.798;2023-03-18T09:00:48;98907.34;;;21.77;35.69
14966;BME280;7577;45.226;5.798;2023-03-18T09:03:19;98905.63;;;21.78;35.68
14966;BME280;7577;45.226;5.798;2023-03-18T09:05:49;98905.86;;;21.79;35.64
14966;BME280;7577;45.226;5.798;2023-03-18T09:08:21;98911.07;;;21.81;35.52
14966;BME280;7577;45.226;5.798;2023-03-18T09:10:52;98901.85;;;21.83;35.59
14966;BME280;7577;45.226;5.798;2023-03-18T09:13:23;98908.78;;;21.83;35.54
14966;BME280;7577;45.226;5.798;2023-03-18T09:15:53;98905.19;;;21.82;35.48
14966;BME280;7577;45.226;5.798;2023-03-18T09:18:23;98902.31;;;21.85;35.42
14966;BME280;7577;45.226;5.798;2023-03-18T09:23:31;98893.55;;;21.89;35.25
14966;BME280;7577;45.226;5.798;2023-03-18T09:26:02;98891.34;;;21.88;35.22
14966;BME280;7577;45.226;5.798;2023-03-18T09:28:33;98892.06;;;21.91;35.16
14966;BME280;7577;45.226;5.798;2023-03-18T09:33:41;98889.41;;;21.95;35.01
14966;BME280;7577;45.226;5.798;2023-03-18T09:36:12;98888.72;;;21.92;35.00
14966;BME280;7577;45.226;5.798;2023-03-18T09:38:42;98891.72;;;21.93;35.08
14966;BME280;7577;45.226;5.798;2023-03-18T09:41:22;98890.90;;;21.92;35.05
14966;BME280;7577;45.226;5.798;2023-03-18T09:46:47;98888.13;;;21.92;35.18
14966;BME280;7577;45.226;5.798;2023-03-18T09:49:32;98886.73;;;21.92;35.11
14966;BME280;7577;45.226;5.798;2023-03-18T09:52:11;98888.02;;;21.95;35.06
14966;BME280;7577;45.226;5.798;2023-03-18T09:54:44;98891.52;;;21.98;34.99
14966;BME280;7577;45.226;5.798;2023-03-18T09:57:18;98888.40;;;21.99;34.88
14966;BME280;7577;45.226;5.798;2023-03-18T09:59:50;98886.08;;;22.01;34.88
14966;BME280;7577;45.226;5.798;2023-03-18T10:02:26;98882.41;;;22.03;34.89
14966;BME280;7577;45.226;5.798;2023-03-18T10:04:58;98878.81;;;22.03;34.83
14966;BME280;7577;45.226;5.798;2023-03-18T10:07:32;98874.55;;;22.05;34.74
14966;BME280;7577;45.226;5.798;2023-03-18T10:10:07;98875.37;;;22.06;34.77
14966;BME280;7577;45.226;5.798;2023-03-18T10:12:41;98870.27;;;22.08;34.73
14966;BME280;7577;45.226;5.798;2023-03-18T10:15:18;98868.66;;;22.07;34.75
14966;BME280;7577;45.226;5.798;2023-03-18T10:17:52;98865.32;;;22.08;34.60
14966;BME280;7577;45.226;5.798;2023-03-18T10:20:26;98860.45;;;22.10;34.67
14966;BME280;7577;45.226;5.798;2023-03-18T10:23:03;98864.62;;;22.10;34.59
14966;BME280;7577;45.226;5.798;2023-03-18T10:25:37;98861.84;;;22.10;34.63
14966;BME280;7577;45.226;5.798;2023-03-18T10:31:24;98856.78;;;22.13;34.49
14966;BME280;7577;45.226;5.798;2023-03-18T10:33:57;98857.34;;;22.12;34.50
14966;BME280;7577;45.226;5.798;2023-03-18T10:36:33;98856.44;;;22.14;34.48
14966;BME280;7577;45.226;5.798;2023-03-18T10:39:03;98854.45;;;22.14;34.48
14966;BME280;7577;45.226;5.798;2023-03-18T10:41:35;98854.45;;;22.14;34.46
14966;BME280;7577;45.226;5.798;2023-03-18T10:44:17;98852.73;;;22.16;34.44
14966;BME280;7577;45.226;5.798;2023-03-18T10:46:43;98852.73;;;22.16;34.49
14966;BME280;7577;45.226;5.798;2023-03-18T10:51:56;98849.39;;;22.17;34.38
14966;BME280;7577;45.226;5.798;2023-03-18T10:54:30;98847.75;;;22.15;34.38
14966;BME280;7577;45.226;5.798;2023-03-18T10:57:01;98844.98;;;22.15;34.38
14966;BME280;7577;45.226;5.798;2023-03-18T10:59:31;98848.12;;;22.14;34.38
14966;BME280;7577;45.226;5.798;2023-03-18T11:04:35;98846.36;;;22.15;34.26
14966;BME280;7577;45.226;5.798;2023-03-18T11:07:11;98846.96;;;22.15;34.22
14966;BME280;7577;45.226;5.798;2023-03-18T11:09:41;98844.41;;;22.16;34.27
14966;BME280;7577;45.226;5.798;2023-03-18T11:12:16;98842.57;;;22.14;34.23
14966;BME280;7577;45.226;5.798;2023-03-18T11:14:48;98831.47;;;22.14;34.25
14966;BME280;7577;45.226;5.798;2023-03-18T11:17:21;98837.59;;;22.13;34.26
14966;BME280;7577;45.226;5.798;2023-03-18T11:20:01;98837.81;;;22.14;34.24
14966;BME280;7577;45.226;5.798;2023-03-18T11:22:37;98842.80;;;22.15;34.28
14966;BME280;7577;45.226;5.798;2023-03-18T11:25:15;98840.81;;;22.15;34.23
14966;BME280;7577;45.226;5.798;2023-03-18T11:27:46;98837.70;;;22.17;34.24
14966;BME280;7577;45.226;5.798;2023-03-18T11:30:20;98836.31;;;22.17;34.22
14966;BME280;7577;45.226;5.798;2023-03-18T11:32:56;98837.14;;;22.18;34.22
14966;BME280;7577;45.226;5.798;2023-03-18T11:35:31;98836.57;;;22.18;34.23
14966;BME280;7577;45.226;5.798;2023-03-18T11:38:03;98835.98;;;22.18;34.23
14966;BME280;7577;45.226;5.798;2023-03-18T11:40:35;98843.14;;;22.19;34.18
14966;BME280;7577;45.226;5.798;2023-03-18T11:43:15;98839.34;;;22.18;34.18
14966;BME280;7577;45.226;5.798;2023-03-18T11:45:49;98840.63;;;22.21;34.14
14966;BME280;7577;45.226;5.798;2023-03-18T11:48:28;98831.14;;;22.22;34.15
14966;BME280;7577;45.226;5.798;2023-03-18T11:51:42;98835.64;;;22.20;34.13
14966;BME280;7577;45.226;5.798;2023-03-18T11:57:22;98824.20;;;22.22;34.13
14966;BME280;7577;45.226;5.798;2023-03-18T12:00:10;98824.66;;;22.23;34.06
14966;BME280;7577;45.226;5.798;2023-03-18T12:02:52;98828.25;;;22.24;34.06
14966;BME280;7577;45.226;5.798;2023-03-18T12:05:36;98823.16;;;22.26;34.03
14966;BME280;7577;45.226;5.798;2023-03-18T12:08:13;98827.31;;;22.26;34.02
14966;BME280;7577;45.226;5.798;2023-03-18T12:10:47;98818.66;;;22.28;34.00
14966;BME280;7577;45.226;5.798;2023-03-18T12:13:34;98814.16;;;22.29;34.04
14966;BME280;7577;45.226;5.798;2023-03-18T12:16:09;98812.77;;;22.29;33.98
14966;BME280;7577;45.226;5.798;2023-03-18T12:18:46;98808.03;;;22.30;33.96
14966;BME280;7577;45.226;5.798;2023-03-18T12:24:45;98799.11;;;22.30;33.96
14966;BME280;7577;45.226;5.798;2023-03-18T12:27:07;98795.44;;;22.32;33.92
14966;BME280;7577;45.226;5.798;2023-03-18T12:29:59;98790.11;;;22.33;33.90
14966;BME280;7577;45.226;5.798;2023-03-18T12:32:32;98787.90;;;22.33;33.88
14966;BME280;7577;45.226;5.798;2023-03-18T12:35:18;98790.11;;;22.33;33.88
14966;BME280;7577;45.226;5.798;2023-03-18T12:40:37;98785.15;;;22.39;33.82
14966;BME280;7577;45.226;5.798;2023-03-18T12:46:22;98784.55;;;22.39;33.79
14966;BME280;7577;45.226;5.798;2023-03-18T12:48:57;98781.78;;;22.39;33.78
14966;BME280;7577;45.226;5.798;2023-03-18T12:51:28;98784.81;;;22.40;33.73
14966;BME280;7577;45.226;5.798;2023-03-18T12:54:04;98780.87;;;22.41;33.75
14966;BME280;7577;45.226;5.798;2023-03-18T12:56:38;98779.14;;;22.43;33.74
14966;BME280;7577;45.226;5.798;2023-03-18T12:59:11;98773.94;;;22.41;33.75
14966;BME280;7577;45.226;5.798;2023-03-18T13:01:45;98766.39;;;22.42;33.75
14966;BME280;7577;45.226;5.798;2023-03-18T13:04:18;98769.42;;;22.43;33.74
14966;BME280;7577;45.226;5.798;2023-03-18T13:06:54;98771.27;;;22.45;33.72
14966;BME280;7577;45.226;5.798;2023-03-18T13:09:30;98765.71;;;22.45;33.69
14966;BME280;7577;45.226;5.798;2023-03-18T13:12:04;98762.06;;;22.47;33.63
14966;BME280;7577;45.226;5.798;2023-03-18T13:14:42;98760.08;;;22.47;33.64
14966;BME280;7577;45.226;5.798;2023-03-18T13:17:16;98762.85;;;22.47;33.64
14966;BME280;7577;45.226;5.798;2023-03-18T13:19:47;98764.72;;;22.49;33.63
14966;BME280;7577;45.226;5.798;2023-03-18T13:25:15;98753.62;;;22.49;33.64
14966;BME280;7577;45.226;5.798;2023-03-18T13:27:51;98754.62;;;22.51;33.62
14966;BME280;7577;45.226;5.798;2023-03-18T13:30:27;98744.91;;;22.51;33.61
14966;BME280;7577;45.226;5.798;2023-03-18T13:33:06;98741.57;;;22.51;33.60
14966;BME280;7577;45.226;5.798;2023-03-18T13:35:47;98737.98;;;22.51;33.58
14966;BME280;7577;45.226;5.798;2023-03-18T13:38:32;98736.36;;;22.50;33.60
14966;BME280;7577;45.226;5.798;2023-03-18T13:41:12;98736.50;;;22.53;33.59
14966;BME280;7577;45.226;5.798;2023-03-18T13:43:45;98731.86;;;22.51;33.59
14966;BME280;7577;45.226;5.798;2023-03-18T13:46:21;98741.57;;;22.51;33.60
14966;BME280;7577;45.226;5.798;2023-03-18T13:48:56;98730.34;;;22.54;33.57
14966;BME280;7577;45.226;5.798;2023-03-18T13:54:43;98732.91;;;22.53;33.58
14966;BME280;7577;45.226;5.798;2023-03-18T13:57:32;98733.61;;;22.56;33.55
14966;BME280;7577;45.226;5.798;2023-03-18T14:06:20;98720.98;;;22.52;33.57
14966;BME280;7577;45.226;5.798;2023-03-18T14:08:51;98734.41;;;22.50;33.58
14966;BME280;7577;45.226;5.798;2023-03-18T14:11:43;98731.63;;;22.50;33.79
14966;BME280;7577;45.226;5.798;2023-03-18T14:14:52;98727.25;;;22.49;33.91
14966;BME280;7577;45.226;5.798;2023-03-18T14:17:29;98731.41;;;22.49;34.02
14966;BME280;7577;45.226;5.798;2023-03-18T14:23:18;98726.42;;;22.49;34.35
14966;BME280;7577;45.226;5.798;2023-03-18T14:25:52;98725.86;;;22.49;34.39
14966;BME280;7577;45.226;5.798;2023-03-18T14:28:25;98721.09;;;22.50;34.34
14966;BME280;7577;45.226;5.798;2023-03-18T14:30:58;98715.09;;;22.48;34.33
14966;BME280;7577;45.226;5.798;2023-03-18T14:33:56;98724.22;;;22.48;34.41
14966;BME280;7577;45.226;5.798;2023-03-18T14:37:03;98717.53;;;22.49;34.52
14966;BME280;7577;45.226;5.798;2023-03-18T14:42:00;98719.93;;;22.51;34.59
14966;BME280;7577;45.226;5.798;2023-03-18T14:47:17;98721.09;;;22.50;34.65
14966;BME280;7577;45.226;5.798;2023-03-18T14:49:50;98715.09;;;22.48;34.76
14966;BME280;7577;45.226;5.798;2023-03-18T14:52:26;98728.86;;;22.50;34.75
14966;BME280;7577;45.226;5.798;2023-03-18T14:55:00;98723.53;;;22.51;34.85
14966;BME280;7577;45.226;5.798;2023-03-18T14:57:31;98719.02;;;22.53;34.83
14966;BME280;7577;45.226;5.798;2023-03-18T15:00:02;98717.63;;;22.53;34.90
14966;BME280;7577;45.226;5.798;2023-03-18T15:02:36;98713.35;;;22.55;34.91
14966;BME280;7577;45.226;5.798;2023-03-18T15:05:08;98711.26;;;22.52;34.89
14966;BME280;7577;45.226;5.798;2023-03-18T15:07:40;98708.04;;;22.50;34.92
14966;BME280;7577;45.226;5.798;2023-03-18T15:10:14;98711.26;;;22.52;34.93
14966;BME280;7577;45.226;5.798;2023-03-18T15:15:36;98720.41;;;22.53;34.78
14966;BME280;7577;45.226;5.798;2023-03-18T15:20:56;98727.69;;;22.51;34.83
14966;BME280;7577;45.226;5.798;2023-03-18T15:23:29;98720.75;;;22.51;34.87
14966;BME280;7577;45.226;5.798;2023-03-18T15:26:02;98724.22;;;22.60;34.78
14966;BME280;7577;45.226;5.798;2023-03-18T15:28:34;98724.69;;;22.62;34.69
14966;BME280;7577;45.226;5.798;2023-03-18T15:31:04;98718.09;;;22.61;34.49
14966;BME280;7577;45.226;5.798;2023-03-18T15:36:15;98724.78;;;22.60;34.47
14966;BME280;7577;45.226;5.798;2023-03-18T15:38:47;98722.50;;;22.56;34.46
14966;BME280;7577;45.226;5.798;2023-03-18T15:41:19;98723.29;;;22.56;34.49
14966;BME280;7577;45.226;5.798;2023-03-18T15:43:52;98721.68;;;22.55;34.53
14966;BME280;7577;45.226;5.798;2023-03-18T15:46:26;98730.83;;;22.56;34.44
14966;BME280;7577;45.226;5.798;2023-03-18T15:49:00;98726.41;;;22.55;34.43
14966;BME280;7577;45.226;5.798;2023-03-18T15:51:40;98734.17;;;22.55;34.38
14966;BME280;7577;45.226;5.798;2023-03-18T15:54:15;98732.78;;;22.55;34.38
14966;BME280;7577;45.226;5.798;2023-03-18T15:56:48;98731.40;;;22.55;34.32
14966;BME280;7577;45.226;5.798;2023-03-18T15:59:22;98731.05;;;22.57;34.24